Time;durP1;ratioP1;P1;durP2;ratioP2;P2;SDS_P1;SDS_P2;PMS_P1;PMS_P2;Temp;Humidity;BMP_temperature;BMP_pressure;BME280_temperature;BME280_humidity;BME280_pressure;Samples;Min_cycle;Max_cycle;Signal;HPM_P1;HPM_P2
2021/08/17 00:01:10;;;;;;;24.45;4.72;;;;;;;;;;5113057;27;20047;-70
2021/08/17 00:03:36;;;;;;;18.77;3.88;;;;;;;;;;5109369;27;20066;-70
2021/08/17 00:06:04;;;;;;;20.98;4.05;;;;;;;;;;5115199;27;20047;-70
2021/08/17 00:08:30;;;;;;;18.17;3.25;;;;;;;;;;5103956;27;20122;-70
2021/08/17 00:10:57;;;;;;;17.10;3.70;;;;;;;;;;5083736;27;20145;-70
2021/08/17 00:13:23;;;;;;;19.17;3.85;;;;;;;;;;5108031;27;20150;-70
2021/08/17 00:15:49;;;;;;;17.90;3.72;;;;;;;;;;5115458;27;20471;-70
2021/08/17 00:18:16;;;;;;;16.60;3.67;;;;;;;;;;5107660;27;20067;-70
2021/08/17 00:20:42;;;;;;;20.77;3.47;;;;;;;;;;5119997;27;20164;-70
2021/08/17 00:23:09;;;;;;;17.08;3.65;;;;;;;;;;5100685;27;20076;-70
2021/08/17 00:25:35;;;;;;;14.82;3.35;;;;;;;;;;5115351;27;20043;-70
2021/08/17 00:28:02;;;;;;;18.40;4.05;;;;;;;;;;5109557;27;21950;-70
2021/08/17 00:30:28;;;;;;;16.90;3.70;;;;;;;;;;5119716;27;20055;-70
2021/08/17 00:32:54;;;;;;;19.30;3.58;;;;;;;;;;5107732;27;20035;-70
2021/08/17 00:35:24;;;;;;;21.30;3.42;;;;;;;;;;5112634;27;20435;-70
2021/08/17 00:37:50;;;;;;;19.75;3.67;;;;;;;;;;5120850;27;20040;-70
2021/08/17 00:40:16;;;;;;;16.15;3.30;;;;;;;;;;5105799;27;20115;-70
2021/08/17 00:42:43;;;;;;;15.73;3.35;;;;;;;;;;5110840;27;20087;-70
2021/08/17 00:45:13;;;;;;;20.58;3.70;;;;;;;;;;5110797;27;20041;-70
2021/08/17 00:47:40;;;;;;;18.63;3.55;;;;;;;;;;5121035;27;20494;-70
2021/08/17 00:50:06;;;;;;;18.23;3.50;;;;;;;;;;5105471;27;20039;-70
2021/08/17 00:52:32;;;;;;;16.48;3.38;;;;;;;;;;5095991;27;20048;-70
2021/08/17 00:54:58;;;;;;;16.98;3.30;;;;;;;;;;5114732;27;20036;-70
2021/08/17 00:57:25;;;;;;;19.20;3.30;;;;;;;;;;5102536;27;20499;-70
2021/08/17 00:59:51;;;;;;;17.55;3.50;;;;;;;;;;5083235;27;20558;-70
2021/08/17 01:02:18;;;;;;;15.68;3.50;;;;;;;;;;5118368;27;20043;-71
2021/08/17 01:04:44;;;;;;;13.27;2.97;;;;;;;;;;5080802;28;20032;-71
2021/08/17 01:07:11;;;;;;;17.27;3.63;;;;;;;;;;5117929;27;20043;-71
2021/08/17 01:09:38;;;;;;;14.85;3.05;;;;;;;;;;5104764;27;20039;-71
2021/08/17 01:12:04;;;;;;;12.38;2.95;;;;;;;;;;5118513;27;20048;-70
2021/08/17 01:14:31;;;;;;;11.15;2.85;;;;;;;;;;5116276;27;20035;-71
2021/08/17 01:16:57;;;;;;;11.00;3.30;;;;;;;;;;5108406;27;20043;-70
2021/08/17 01:19:23;;;;;;;19.15;3.58;;;;;;;;;;5112653;27;20597;-70
2021/08/17 01:21:50;;;;;;;11.07;3.13;;;;;;;;;;5090577;27;20067;-70
2021/08/17 01:24:17;;;;;;;17.63;3.40;;;;;;;;;;5116636;27;20471;-70
2021/08/17 01:26:44;;;;;;;16.48;3.60;;;;;;;;;;5104190;27;20031;-70
2021/08/17 01:29:11;;;;;;;17.40;3.55;;;;;;;;;;5109019;27;20036;-70
2021/08/17 01:31:37;;;;;;;16.60;3.85;;;;;;;;;;5108420;27;20039;-70
2021/08/17 01:34:03;;;;;;;18.00;2.88;;;;;;;;;;5117782;27;20042;-70
2021/08/17 01:36:29;;;;;;;14.55;3.47;;;;;;;;;;5103644;27;20164;-70
2021/08/17 01:38:56;;;;;;;14.15;2.85;;;;;;;;;;5114830;27;20047;-70
2021/08/17 01:41:22;;;;;;;12.23;2.78;;;;;;;;;;5109603;27;20652;-71
2021/08/17 01:43:48;;;;;;;15.43;3.42;;;;;;;;;;5107379;27;20078;-70
2021/08/17 01:46:15;;;;;;;15.80;3.22;;;;;;;;;;5104333;27;20036;-71
2021/08/17 01:48:41;;;;;;;14.43;3.17;;;;;;;;;;5120377;27;20100;-70
2021/08/17 01:51:08;;;;;;;16.27;4.20;;;;;;;;;;5108095;27;20079;-70
2021/08/17 01:53:34;;;;;;;15.18;3.53;;;;;;;;;;5111192;27;20058;-70
2021/08/17 01:56:08;;;;;;;12.80;2.63;;;;;;;;;;5117494;27;20042;-70
2021/08/17 01:58:34;;;;;;;11.73;3.20;;;;;;;;;;5115955;27;20046;-70
2021/08/17 02:01:01;;;;;;;18.95;3.35;;;;;;;;;;5104170;27;20552;-70
2021/08/17 02:03:27;;;;;;;12.68;3.15;;;;;;;;;;5086107;28;20635;-70
2021/08/17 02:05:53;;;;;;;14.98;3.13;;;;;;;;;;5118059;27;20153;-70
2021/08/17 02:08:20;;;;;;;10.98;2.20;;;;;;;;;;5111973;27;20367;-70
2021/08/17 02:10:46;;;;;;;9.63;2.58;;;;;;;;;;5084571;28;20105;-70
2021/08/17 02:13:12;;;;;;;14.73;3.03;;;;;;;;;;5106435;27;20039;-70
2021/08/17 02:15:39;;;;;;;10.75;2.38;;;;;;;;;;5117829;27;20088;-70
2021/08/17 02:18:05;;;;;;;14.20;2.63;;;;;;;;;;5103393;27;20051;-70
2021/08/17 02:20:31;;;;;;;13.40;2.70;;;;;;;;;;5109778;27;20414;-70
2021/08/17 02:22:57;;;;;;;10.18;1.95;;;;;;;;;;5105901;27;20047;-70
2021/08/17 02:25:23;;;;;;;15.43;2.95;;;;;;;;;;5117402;27;20102;-70
2021/08/17 02:27:49;;;;;;;12.65;2.90;;;;;;;;;;5108762;27;20544;-70
2021/08/17 02:30:15;;;;;;;14.18;2.00;;;;;;;;;;5082996;28;20055;-69
2021/08/17 02:32:42;;;;;;;12.30;1.83;;;;;;;;;;5109167;27;20079;-70
2021/08/17 02:35:08;;;;;;;13.13;2.08;;;;;;;;;;5117936;27;20165;-70
2021/08/17 02:37:34;;;;;;;13.95;2.53;;;;;;;;;;5113107;27;20121;-70
2021/08/17 02:40:00;;;;;;;10.98;2.50;;;;;;;;;;5103752;27;20396;-69
2021/08/17 02:42:27;;;;;;;14.73;2.35;;;;;;;;;;5082164;28;20093;-69
2021/08/17 02:44:53;;;;;;;15.25;2.97;;;;;;;;;;5105967;27;20063;-69
2021/08/17 02:47:19;;;;;;;11.77;2.28;;;;;;;;;;5112400;27;20046;-69
2021/08/17 02:49:45;;;;;;;11.00;1.92;;;;;;;;;;5107599;27;20074;-69
2021/08/17 02:52:11;;;;;;;8.27;1.77;;;;;;;;;;5114808;27;20039;-69
2021/08/17 02:54:40;;;;;;;7.65;2.03;;;;;;;;;;5105135;27;20042;-70
2021/08/17 02:57:09;;;;;;;12.40;2.88;;;;;;;;;;5112538;27;20589;-70
2021/08/17 02:59:35;;;;;;;13.52;2.00;;;;;;;;;;5112186;27;20043;-70
2021/08/17 03:02:02;;;;;;;11.13;2.15;;;;;;;;;;5116086;27;20588;-69
2021/08/17 03:04:28;;;;;;;16.10;2.58;;;;;;;;;;5102656;28;20036;-69
2021/08/17 03:06:57;;;;;;;11.80;2.53;;;;;;;;;;5113305;28;20031;-69
2021/08/17 03:09:24;;;;;;;14.25;2.33;;;;;;;;;;5109978;28;20036;-69
2021/08/17 03:11:50;;;;;;;13.32;2.00;;;;;;;;;;5109416;28;20044;-69
2021/08/17 03:14:16;;;;;;;13.43;2.20;;;;;;;;;;5105066;28;20032;-69
2021/08/17 03:16:42;;;;;;;10.40;2.10;;;;;;;;;;5116009;28;20039;-70
2021/08/17 03:19:09;;;;;;;15.05;3.35;;;;;;;;;;5116779;28;20048;-70
2021/08/17 03:21:36;;;;;;;11.50;2.55;;;;;;;;;;5102220;28;20126;-70
2021/08/17 03:24:02;;;;;;;17.15;2.45;;;;;;;;;;5111532;28;20535;-70
2021/08/17 03:26:28;;;;;;;14.13;1.98;;;;;;;;;;5107776;28;20399;-70
2021/08/17 03:28:54;;;;;;;12.93;2.05;;;;;;;;;;5115385;28;20538;-70
2021/08/17 03:31:20;;;;;;;16.48;2.20;;;;;;;;;;5090306;28;20447;-70
2021/08/17 03:33:47;;;;;;;10.32;1.85;;;;;;;;;;5096698;28;20044;-70
2021/08/17 03:36:13;;;;;;;12.85;1.52;;;;;;;;;;5073177;28;20048;-70
2021/08/17 03:38:39;;;;;;;14.07;2.22;;;;;;;;;;5112594;28;20467;-70
2021/08/17 03:41:05;;;;;;;9.25;1.73;;;;;;;;;;5104661;28;20088;-69
2021/08/17 03:43:36;;;;;;;12.38;1.80;;;;;;;;;;5096084;28;20039;-69
2021/08/17 03:46:04;;;;;;;11.77;1.73;;;;;;;;;;5076563;28;20036;-70
2021/08/17 03:48:30;;;;;;;14.90;1.90;;;;;;;;;;5093779;28;20199;-69
2021/08/17 03:50:57;;;;;;;8.90;1.88;;;;;;;;;;5077177;28;20032;-69
2021/08/17 03:53:23;;;;;;;14.15;1.88;;;;;;;;;;5114610;28;20032;-69
2021/08/17 03:55:49;;;;;;;16.98;2.63;;;;;;;;;;5108040;28;20483;-69
2021/08/17 03:58:15;;;;;;;12.23;2.00;;;;;;;;;;5091209;28;20043;-69
2021/08/17 04:00:41;;;;;;;14.85;2.13;;;;;;;;;;5113238;28;20035;-69
2021/08/17 04:03:08;;;;;;;10.75;2.58;;;;;;;;;;5111836;27;20046;-69
2021/08/17 04:05:34;;;;;;;11.30;2.35;;;;;;;;;;5115842;27;20076;-69
2021/08/17 04:08:02;;;;;;;12.68;2.03;;;;;;;;;;5105558;27;20036;-69
2021/08/17 04:10:29;;;;;;;11.23;1.85;;;;;;;;;;5117792;27;20102;-69
2021/08/17 04:12:55;;;;;;;10.13;1.58;;;;;;;;;;5112022;27;20051;-69
2021/08/17 04:15:21;;;;;;;14.50;1.98;;;;;;;;;;5111971;27;20035;-69
2021/08/17 04:17:47;;;;;;;9.95;1.83;;;;;;;;;;5090134;27;20456;-69
2021/08/17 04:20:15;;;;;;;12.18;2.13;;;;;;;;;;5120030;27;20537;-70
2021/08/17 04:22:41;;;;;;;13.02;2.92;;;;;;;;;;5085975;27;20047;-70
2021/08/17 04:25:07;;;;;;;11.82;2.15;;;;;;;;;;5111822;27;20479;-70
2021/08/17 04:27:34;;;;;;;13.23;2.67;;;;;;;;;;5110046;27;20458;-70
2021/08/17 04:30:03;;;;;;;15.30;2.65;;;;;;;;;;5119337;27;20479;-70
2021/08/17 04:32:30;;;;;;;13.48;2.65;;;;;;;;;;5108968;27;20467;-70
2021/08/17 04:34:56;;;;;;;12.85;2.55;;;;;;;;;;5099267;27;20047;-70
2021/08/17 04:37:22;;;;;;;10.75;1.88;;;;;;;;;;5111206;27;20044;-70
2021/08/17 04:39:48;;;;;;;13.52;2.22;;;;;;;;;;5119065;27;20114;-70
2021/08/17 04:42:15;;;;;;;12.40;2.20;;;;;;;;;;5113731;27;20035;-70
2021/08/17 04:44:41;;;;;;;9.45;1.95;;;;;;;;;;5108336;27;20498;-70
2021/08/17 04:47:07;;;;;;;15.60;2.35;;;;;;;;;;5122261;27;20544;-70
2021/08/17 04:49:33;;;;;;;15.15;2.63;;;;;;;;;;5114429;27;20081;-70
2021/08/17 04:51:59;;;;;;;15.70;3.03;;;;;;;;;;5115189;27;20062;-70
2021/08/17 04:54:26;;;;;;;16.05;2.35;;;;;;;;;;5110903;27;20059;-70
2021/08/17 04:56:52;;;;;;;14.25;2.40;;;;;;;;;;5120837;27;20031;-70
2021/08/17 04:59:18;;;;;;;11.10;2.20;;;;;;;;;;5107081;27;20043;-70
2021/08/17 05:01:44;;;;;;;18.05;3.03;;;;;;;;;;5099237;27;20536;-70
2021/08/17 05:04:10;;;;;;;13.07;2.38;;;;;;;;;;5102570;27;20043;-69
2021/08/17 05:06:36;;;;;;;10.50;1.75;;;;;;;;;;5118201;27;20039;-69
2021/08/17 05:09:04;;;;;;;10.32;2.45;;;;;;;;;;5106929;27;20044;-69
2021/08/17 05:11:31;;;;;;;9.15;2.25;;;;;;;;;;5116957;27;20043;-69
2021/08/17 05:13:57;;;;;;;14.52;2.63;;;;;;;;;;5113183;27;20050;-70
2021/08/17 05:16:23;;;;;;;16.95;3.85;;;;;;;;;;5112452;27;20055;-70
2021/08/17 05:18:50;;;;;;;11.23;2.65;;;;;;;;;;5114433;27;20051;-70
2021/08/17 05:21:16;;;;;;;19.52;3.65;;;;;;;;;;5111205;27;20093;-70
2021/08/17 05:23:42;;;;;;;9.05;2.83;;;;;;;;;;5102491;28;20063;-70
2021/08/17 05:26:08;;;;;;;15.18;3.40;;;;;;;;;;5106900;27;20043;-70
2021/08/17 05:28:35;;;;;;;13.75;3.33;;;;;;;;;;5112764;27;20043;-70
2021/08/17 05:31:01;;;;;;;15.88;3.72;;;;;;;;;;5113562;27;20078;-70
2021/08/17 05:33:27;;;;;;;32.38;20.30;;;;;;;;;;5118515;27;20035;-70
2021/08/17 05:35:53;;;;;;;44.10;27.58;;;;;;;;;;5105627;27;20032;-70
2021/08/17 05:38:19;;;;;;;11.32;4.70;;;;;;;;;;5116161;27;20063;-70
2021/08/17 05:40:45;;;;;;;11.70;2.95;;;;;;;;;;5109220;27;20459;-70
2021/08/17 05:43:11;;;;;;;15.55;3.97;;;;;;;;;;5096793;27;20043;-70
2021/08/17 05:45:38;;;;;;;11.88;3.53;;;;;;;;;;5104943;27;20254;-70
2021/08/17 05:48:04;;;;;;;13.05;3.60;;;;;;;;;;5114805;27;20125;-70
2021/08/17 05:50:30;;;;;;;12.48;3.85;;;;;;;;;;5111102;27;20039;-70
2021/08/17 05:52:56;;;;;;;13.25;3.72;;;;;;;;;;5109967;27;20028;-70
2021/08/17 05:55:22;;;;;;;14.25;3.35;;;;;;;;;;5107755;27;20509;-70
2021/08/17 05:57:59;;;;;;;12.43;4.15;;;;;;;;;;5114372;27;20458;-70
2021/08/17 06:00:26;;;;;;;11.48;3.55;;;;;;;;;;5093967;27;20130;-70
2021/08/17 06:02:52;;;;;;;13.50;3.60;;;;;;;;;;5103176;27;20467;-70
2021/08/17 06:05:18;;;;;;;27.38;18.15;;;;;;;;;;5114549;27;20039;-70
2021/08/17 06:07:45;;;;;;;15.57;6.78;;;;;;;;;;5106316;27;20044;-70
2021/08/17 06:10:11;;;;;;;10.65;3.70;;;;;;;;;;5117203;27;20070;-70
2021/08/17 06:12:38;;;;;;;11.07;3.80;;;;;;;;;;5083276;28;20058;-70
2021/08/17 06:15:04;;;;;;;11.25;3.97;;;;;;;;;;5093628;28;20274;-70
2021/08/17 06:17:31;;;;;;;16.05;4.13;;;;;;;;;;5087945;28;20042;-70
2021/08/17 06:19:57;;;;;;;11.73;3.55;;;;;;;;;;5092388;28;20495;-70
2021/08/17 06:22:23;;;;;;;7.55;3.72;;;;;;;;;;5082731;28;20040;-69
2021/08/17 06:24:49;;;;;;;13.10;3.47;;;;;;;;;;5095987;28;20093;-69
2021/08/17 06:27:16;;;;;;;10.93;3.55;;;;;;;;;;5086917;28;20442;-69
2021/08/17 06:29:44;;;;;;;13.50;4.85;;;;;;;;;;5088951;28;20038;-69
2021/08/17 06:32:10;;;;;;;13.10;4.15;;;;;;;;;;5089831;28;20039;-69
2021/08/17 06:34:36;;;;;;;10.52;3.67;;;;;;;;;;5094142;28;20061;-69
2021/08/17 06:37:02;;;;;;;9.90;3.55;;;;;;;;;;5085701;28;20032;-70
2021/08/17 06:39:28;;;;;;;11.45;3.45;;;;;;;;;;5091330;28;20051;-70
2021/08/17 06:41:54;;;;;;;7.97;3.35;;;;;;;;;;5097729;28;20027;-70
2021/08/17 06:44:21;;;;;;;8.75;3.85;;;;;;;;;;5088107;28;20031;-70
2021/08/17 06:46:47;;;;;;;8.80;3.22;;;;;;;;;;5092064;28;20066;-70
2021/08/17 06:49:13;;;;;;;13.98;4.53;;;;;;;;;;5081119;28;20040;-70
2021/08/17 06:51:39;;;;;;;7.75;3.40;;;;;;;;;;5098454;28;20046;-70
2021/08/17 06:54:05;;;;;;;6.85;3.05;;;;;;;;;;5089577;28;20902;-70
2021/08/17 06:56:31;;;;;;;9.60;3.30;;;;;;;;;;5088294;28;20028;-70
2021/08/17 06:58:58;;;;;;;9.30;3.38;;;;;;;;;;5086574;28;20048;-70
2021/08/17 07:01:24;;;;;;;7.75;3.40;;;;;;;;;;5096907;28;20044;-70
2021/08/17 07:03:50;;;;;;;27.92;19.60;;;;;;;;;;5085980;28;20040;-70
2021/08/17 07:06:16;;;;;;;14.00;6.28;;;;;;;;;;5090868;28;20385;-70
2021/08/17 07:08:43;;;;;;;9.52;4.20;;;;;;;;;;5090523;28;20084;-70
2021/08/17 07:11:09;;;;;;;10.27;3.67;;;;;;;;;;5096208;28;20107;-70
2021/08/17 07:13:36;;;;;;;7.30;3.35;;;;;;;;;;5088732;28;20055;-70
2021/08/17 07:16:02;;;;;;;9.25;3.60;;;;;;;;;;5109681;28;20032;-70
2021/08/17 07:18:28;;;;;;;8.82;3.63;;;;;;;;;;5119361;28;20123;-71
2021/08/17 07:20:55;;;;;;;9.63;4.20;;;;;;;;;;5107332;28;20051;-71
2021/08/17 07:23:21;;;;;;;9.55;3.85;;;;;;;;;;5093041;28;20051;-71
2021/08/17 07:25:47;;;;;;;8.45;3.72;;;;;;;;;;5099230;28;20023;-71
2021/08/17 07:28:14;;;;;;;10.73;4.15;;;;;;;;;;5081739;28;20055;-71
2021/08/17 07:30:41;;;;;;;9.95;4.07;;;;;;;;;;5103328;28;20047;-71
2021/08/17 07:33:08;;;;;;;9.15;3.95;;;;;;;;;;5110603;28;20457;-71
2021/08/17 07:35:34;;;;;;;12.40;4.80;;;;;;;;;;5109917;27;20436;-71
2021/08/17 07:38:01;;;;;;;15.18;4.38;;;;;;;;;;5091397;27;20035;-71
2021/08/17 07:40:27;;;;;;;12.63;4.60;;;;;;;;;;5094485;27;20035;-71
2021/08/17 07:42:53;;;;;;;8.23;4.35;;;;;;;;;;5115387;27;20055;-71
2021/08/17 07:45:20;;;;;;;27.10;23.70;;;;;;;;;;5119219;27;20543;-71
2021/08/17 07:47:46;;;;;;;15.98;8.57;;;;;;;;;;5113412;27;20403;-71
2021/08/17 07:50:13;;;;;;;18.75;7.32;;;;;;;;;;5105156;27;20048;-71
2021/08/17 07:52:40;;;;;;;13.25;5.43;;;;;;;;;;5084665;28;20115;-71
2021/08/17 07:55:08;;;;;;;12.73;5.88;;;;;;;;;;5112064;27;20171;-71
2021/08/17 07:57:34;;;;;;;13.23;5.65;;;;;;;;;;5115068;27;20136;-71
2021/08/17 08:00:00;;;;;;;13.60;5.82;;;;;;;;;;5112233;27;20035;-71
2021/08/17 08:02:26;;;;;;;12.00;5.95;;;;;;;;;;5115558;27;20035;-71
2021/08/17 08:04:52;;;;;;;12.15;6.03;;;;;;;;;;5117351;27;20502;-71
2021/08/17 08:07:18;;;;;;;15.32;6.05;;;;;;;;;;5111261;27;20471;-71
2021/08/17 08:09:44;;;;;;;12.60;6.68;;;;;;;;;;5116074;27;20123;-71
2021/08/17 08:12:13;;;;;;;14.38;6.13;;;;;;;;;;5109583;27;20146;-71
2021/08/17 08:14:40;;;;;;;17.10;7.40;;;;;;;;;;5115479;27;20039;-71
2021/08/17 08:17:07;;;;;;;13.63;7.30;;;;;;;;;;5091084;27;20031;-71
2021/08/17 08:19:33;;;;;;;14.70;7.70;;;;;;;;;;5118683;27;20040;-71
2021/08/17 08:21:59;;;;;;;15.65;7.35;;;;;;;;;;5112401;27;20067;-71
2021/08/17 08:24:25;;;;;;;15.77;7.70;;;;;;;;;;5115981;27;20035;-71
2021/08/17 08:26:51;;;;;;;13.05;6.63;;;;;;;;;;5107445;27;20035;-71
2021/08/17 08:29:17;;;;;;;13.65;6.55;;;;;;;;;;5114354;27;20028;-71
2021/08/17 08:31:43;;;;;;;15.77;7.05;;;;;;;;;;5089674;27;20054;-71
2021/08/17 08:34:10;;;;;;;89.18;79.30;;;;;;;;;;5116467;27;20035;-71
2021/08/17 08:36:36;;;;;;;16.77;9.77;;;;;;;;;;5114348;27;20097;-71
2021/08/17 08:39:02;;;;;;;13.35;7.38;;;;;;;;;;5114535;27;20498;-71
2021/08/17 08:41:28;;;;;;;13.25;7.20;;;;;;;;;;5115557;27;20491;-71
2021/08/17 08:43:55;;;;;;;15.55;8.02;;;;;;;;;;5104794;27;20038;-71
2021/08/17 08:46:21;;;;;;;18.48;7.85;;;;;;;;;;5120642;27;20042;-71
2021/08/17 08:48:49;;;;;;;22.77;9.13;;;;;;;;;;5111726;27;20035;-71
2021/08/17 08:51:16;;;;;;;12.73;8.15;;;;;;;;;;5110706;27;20040;-72
2021/08/17 08:53:43;;;;;;;19.50;8.85;;;;;;;;;;5106615;27;20084;-71
2021/08/17 08:56:09;;;;;;;15.50;8.27;;;;;;;;;;5119179;27;20085;-71
2021/08/17 08:58:35;;;;;;;17.00;8.98;;;;;;;;;;5095777;27;20063;-71
2021/08/17 09:01:01;;;;;;;21.95;8.73;;;;;;;;;;5108950;27;20024;-71
2021/08/17 09:03:44;;;;;;;17.17;8.43;;;;;;;;;;5111214;27;20036;-71
2021/08/17 09:06:20;;;;;;;14.85;8.73;;;;;;;;;;5118244;27;20084;-71
2021/08/17 09:08:47;;;;;;;18.17;8.63;;;;;;;;;;5110003;27;20539;-71
2021/08/17 09:11:31;;;;;;;16.10;8.30;;;;;;;;;;5109736;27;20448;-71
2021/08/17 09:14:14;;;;;;;16.55;9.23;;;;;;;;;;5105257;27;20038;-71
2021/08/17 09:16:40;;;;;;;16.88;8.45;;;;;;;;;;5119011;27;20316;-71
2021/08/17 09:19:21;;;;;;;18.45;9.43;;;;;;;;;;5111755;27;20042;-71
2021/08/17 09:21:47;;;;;;;16.95;9.25;;;;;;;;;;5111466;27;20035;-71
2021/08/17 09:24:24;;;;;;;17.33;9.27;;;;;;;;;;5104981;27;20043;-71
2021/08/17 09:26:55;;;;;;;15.65;8.65;;;;;;;;;;5113438;27;20085;-71
2021/08/17 09:29:23;;;;;;;14.93;9.57;;;;;;;;;;5114670;27;20032;-71
2021/08/17 09:31:51;;;;;;;15.38;9.65;;;;;;;;;;5113617;27;20035;-71
2021/08/17 09:34:18;;;;;;;18.70;11.15;;;;;;;;;;5107375;27;20376;-71
2021/08/17 09:36:45;;;;;;;21.88;15.80;;;;;;;;;;5097289;27;20023;-71
2021/08/17 09:39:12;;;;;;;20.45;10.93;;;;;;;;;;5104946;27;20123;-71
2021/08/17 09:41:39;;;;;;;135.50;121.57;;;;;;;;;;5110304;27;20046;-71
2021/08/17 09:44:06;;;;;;;25.13;14.98;;;;;;;;;;5113004;27;20027;-71
2021/08/17 09:46:34;;;;;;;18.30;10.07;;;;;;;;;;5111907;27;20035;-71
2021/08/17 09:49:19;;;;;;;27.05;15.45;;;;;;;;;;5116945;27;20048;-71
2021/08/17 09:51:46;;;;;;;19.05;12.63;;;;;;;;;;5106333;27;20414;-71
2021/08/17 09:54:13;;;;;;;18.90;11.15;;;;;;;;;;5108053;27;20036;-71
2021/08/17 09:56:39;;;;;;;16.17;10.60;;;;;;;;;;5112796;27;20100;-71
2021/08/17 09:59:05;;;;;;;19.75;10.85;;;;;;;;;;5116461;27;20604;-71
2021/08/17 10:01:32;;;;;;;18.77;10.88;;;;;;;;;;5091641;27;20066;-72
2021/08/17 10:03:59;;;;;;;18.33;10.98;;;;;;;;;;5118615;27;20031;-72
2021/08/17 10:06:26;;;;;;;17.17;10.60;;;;;;;;;;5109130;27;20035;-73
2021/08/17 10:08:53;;;;;;;16.05;10.27;;;;;;;;;;5095395;27;20047;-73
2021/08/17 10:11:19;;;;;;;18.77;10.40;;;;;;;;;;5110308;27;20067;-73
2021/08/17 10:13:45;;;;;;;17.48;10.45;;;;;;;;;;5118578;27;20499;-73
2021/08/17 10:16:16;;;;;;;17.35;10.50;;;;;;;;;;5112943;27;20095;-74
2021/08/17 10:18:44;;;;;;;17.27;10.32;;;;;;;;;;5109548;27;20483;-74
2021/08/17 10:21:10;;;;;;;15.77;10.63;;;;;;;;;;5105633;27;20032;-74
2021/08/17 10:23:41;;;;;;;18.55;10.85;;;;;;;;;;5119651;27;20414;-74
2021/08/17 10:26:07;;;;;;;23.13;14.63;;;;;;;;;;5111855;27;20044;-74
2021/08/17 10:28:34;;;;;;;26.60;18.40;;;;;;;;;;5112240;27;20070;-74
2021/08/17 10:31:13;;;;;;;17.67;10.95;;;;;;;;;;5093032;28;20071;-74
2021/08/17 10:33:40;;;;;;;18.17;10.93;;;;;;;;;;5095340;27;20471;-73
2021/08/17 10:36:11;;;;;;;17.10;10.98;;;;;;;;;;5115427;27;20403;-74
2021/08/17 10:38:38;;;;;;;19.50;10.93;;;;;;;;;;5109207;27;20040;-74
2021/08/17 10:41:06;;;;;;;18.02;10.65;;;;;;;;;;5095901;28;20079;-76
2021/08/17 10:43:32;;;;;;;19.42;10.23;;;;;;;;;;5110240;27;20046;-75
2021/08/17 10:46:00;;;;;;;16.10;9.57;;;;;;;;;;5109651;27;20092;-75
2021/08/17 10:48:48;;;;;;;15.63;9.57;;;;;;;;;;5086570;28;20053;-76
2021/08/17 10:51:21;;;;;;;13.52;8.63;;;;;;;;;;5109706;27;20037;-76
2021/08/17 10:53:51;;;;;;;15.07;8.52;;;;;;;;;;5105820;27;20521;-76
2021/08/17 10:56:18;;;;;;;13.13;8.27;;;;;;;;;;5110929;27;20035;-76
2021/08/17 10:58:46;;;;;;;13.68;8.73;;;;;;;;;;5078200;28;20082;-75
2021/08/17 11:01:12;;;;;;;12.52;8.23;;;;;;;;;;5079992;28;20514;-75
2021/08/17 11:03:40;;;;;;;12.38;9.00;;;;;;;;;;5109977;27;20043;-76
2021/08/17 11:06:06;;;;;;;13.40;8.35;;;;;;;;;;5111742;28;20039;-75
2021/08/17 11:08:32;;;;;;;19.20;14.75;;;;;;;;;;5106259;28;20051;-76
2021/08/17 11:10:59;;;;;;;57.58;48.80;;;;;;;;;;5105271;27;20027;-77
2021/08/17 11:13:26;;;;;;;10.77;7.78;;;;;;;;;;5101418;27;20067;-77
2021/08/17 11:16:12;;;;;;;13.07;8.05;;;;;;;;;;5116391;27;20036;-77
2021/08/17 11:19:04;;;;;;;13.73;7.53;;;;;;;;;;5097733;27;20164;-77
2021/08/17 11:21:37;;;;;;;15.07;7.78;;;;;;;;;;5103320;27;20496;-76
2021/08/17 11:24:06;;;;;;;10.68;7.65;;;;;;;;;;5088582;27;20056;-76
2021/08/17 11:26:32;;;;;;;12.07;7.78;;;;;;;;;;5089353;27;20131;-76
2021/08/17 11:28:58;;;;;;;13.88;7.93;;;;;;;;;;5107596;27;20428;-76
2021/08/17 11:31:24;;;;;;;11.48;7.32;;;;;;;;;;5124325;27;20077;-76
2021/08/17 11:33:50;;;;;;;11.32;8.43;;;;;;;;;;5111115;27;20063;-76
2021/08/17 11:36:20;;;;;;;14.85;9.07;;;;;;;;;;5114536;27;20039;-69
2021/08/17 11:38:46;;;;;;;14.55;7.60;;;;;;;;;;5111284;27;20043;-70
2021/08/17 11:41:33;;;;;;;12.13;7.97;;;;;;;;;;5124203;27;20483;-71
2021/08/17 11:44:09;;;;;;;13.00;8.52;;;;;;;;;;5118298;27;20091;-71
2021/08/17 11:46:35;;;;;;;11.40;7.00;;;;;;;;;;5117939;27;20032;-71
2021/08/17 11:49:19;;;;;;;10.63;6.43;;;;;;;;;;5114214;27;20039;-71
2021/08/17 11:51:45;;;;;;;10.95;6.45;;;;;;;;;;5116983;27;20031;-71
2021/08/17 11:54:15;;;;;;;11.65;6.57;;;;;;;;;;5120537;27;20035;-70
2021/08/17 11:56:42;;;;;;;8.60;5.85;;;;;;;;;;5120426;27;20035;-70
2021/08/17 11:59:08;;;;;;;8.60;5.80;;;;;;;;;;5118886;27;20035;-70
2021/08/17 12:01:34;;;;;;;12.82;6.43;;;;;;;;;;5114205;27;20031;-70
2021/08/17 12:04:10;;;;;;;20.67;16.77;;;;;;;;;;5122424;27;20352;-72
2021/08/17 12:06:36;;;;;;;28.27;13.55;;;;;;;;;;5110770;27;20118;-73
2021/08/17 12:09:18;;;;;;;16.30;8.00;;;;;;;;;;5120068;27;20050;-68
2021/08/17 12:12:00;;;;;;;141.30;51.85;;;;;;;;;;5077944;28;20437;-66
2021/08/17 12:14:26;;;;;;;19.33;9.38;;;;;;;;;;5121279;27;20043;-68
2021/08/17 12:16:56;;;;;;;21.20;12.20;;;;;;;;;;5112224;27;20050;-69
2021/08/17 12:19:22;;;;;;;16.80;9.43;;;;;;;;;;5119164;27;20104;-68
2021/08/17 12:21:48;;;;;;;10.02;5.95;;;;;;;;;;5116006;27;20475;-67
2021/08/17 12:24:27;;;;;;;10.25;6.40;;;;;;;;;;5120087;27;20039;-68
2021/08/17 12:26:54;;;;;;;11.45;5.75;;;;;;;;;;5105828;27;20031;-66
2021/08/17 12:29:23;;;;;;;13.02;7.28;;;;;;;;;;5116843;27;20042;-64
2021/08/17 12:31:51;;;;;;;8.80;5.53;;;;;;;;;;5093798;27;20066;-64
2021/08/17 12:34:17;;;;;;;9.75;5.72;;;;;;;;;;5118173;27;20115;-65
2021/08/17 12:36:44;;;;;;;10.52;4.95;;;;;;;;;;5113266;27;20134;-66
2021/08/17 12:39:10;;;;;;;11.57;5.43;;;;;;;;;;5114319;27;20027;-71
2021/08/17 12:41:37;;;;;;;8.60;4.85;;;;;;;;;;5116602;27;20076;-68
2021/08/17 12:44:16;;;;;;;7.97;4.82;;;;;;;;;;5114249;27;20043;-68
2021/08/17 12:47:03;;;;;;;10.23;5.22;;;;;;;;;;5111429;27;20050;-69
2021/08/17 12:49:36;;;;;;;13.25;5.20;;;;;;;;;;5112411;27;20040;-69
2021/08/17 12:52:21;;;;;;;10.20;5.40;;;;;;;;;;5111181;27;20032;-69
2021/08/17 12:54:48;;;;;;;7.47;4.70;;;;;;;;;;5119910;27;20058;-70
2021/08/17 12:57:21;;;;;;;9.02;4.88;;;;;;;;;;5111498;27;20076;-70
2021/08/17 12:59:48;;;;;;;12.73;4.40;;;;;;;;;;5111259;27;20402;-70
2021/08/17 13:02:14;;;;;;;8.48;4.10;;;;;;;;;;5113736;27;20134;-70
2021/08/17 13:04:40;;;;;;;12.50;4.10;;;;;;;;;;5119759;27;20406;-70
2021/08/17 13:07:07;;;;;;;6.57;3.78;;;;;;;;;;5104735;27;20501;-70
2021/08/17 13:09:33;;;;;;;5.80;4.13;;;;;;;;;;5082929;28;20495;-70
2021/08/17 13:12:00;;;;;;;8.15;4.28;;;;;;;;;;5119148;27;20134;-70
2021/08/17 13:14:26;;;;;;;8.52;3.90;;;;;;;;;;5110666;27;20031;-70
2021/08/17 13:16:52;;;;;;;6.85;3.90;;;;;;;;;;5115816;27;20027;-70
2021/08/17 13:19:18;;;;;;;6.10;3.58;;;;;;;;;;5109192;27;20443;-70
2021/08/17 13:21:45;;;;;;;6.57;3.10;;;;;;;;;;5120322;27;20109;-70
2021/08/17 13:24:11;;;;;;;5.63;3.50;;;;;;;;;;5107441;27;20061;-70
2021/08/17 13:26:37;;;;;;;5.63;2.97;;;;;;;;;;5115990;27;20043;-69
2021/08/17 13:29:03;;;;;;;6.18;3.60;;;;;;;;;;5107965;27;20476;-69
2021/08/17 13:31:29;;;;;;;6.50;3.60;;;;;;;;;;5115623;27;20483;-70
2021/08/17 13:33:55;;;;;;;8.40;3.85;;;;;;;;;;5106752;27;20076;-70
2021/08/17 13:36:21;;;;;;;7.45;3.50;;;;;;;;;;5119198;27;20035;-70
2021/08/17 13:38:48;;;;;;;5.53;2.85;;;;;;;;;;5109087;27;20456;-70
2021/08/17 13:41:14;;;;;;;6.28;3.33;;;;;;;;;;5116283;27;20506;-70
2021/08/17 13:43:40;;;;;;;5.30;2.83;;;;;;;;;;5079366;27;20039;-70
2021/08/17 13:46:06;;;;;;;4.40;2.13;;;;;;;;;;5113670;27;20464;-70
2021/08/17 13:48:32;;;;;;;3.50;2.08;;;;;;;;;;5119117;27;20110;-71
2021/08/17 13:51:00;;;;;;;5.28;2.55;;;;;;;;;;5106023;27;20036;-71
2021/08/17 13:53:26;;;;;;;8.60;7.25;;;;;;;;;;5112117;27;20035;-71
2021/08/17 13:55:52;;;;;;;4.13;3.03;;;;;;;;;;5110831;27;20038;-71
2021/08/17 13:58:19;;;;;;;15.30;11.73;;;;;;;;;;5118518;27;20490;-71
2021/08/17 14:00:45;;;;;;;5.07;3.50;;;;;;;;;;5100549;27;20039;-71
2021/08/17 14:03:12;;;;;;;5.47;2.53;;;;;;;;;;5112839;27;20035;-71
2021/08/17 14:05:38;;;;;;;3.92;2.10;;;;;;;;;;5112617;27;20108;-70
2021/08/17 14:08:05;;;;;;;4.03;2.13;;;;;;;;;;5113458;27;20459;-70
2021/08/17 14:10:31;;;;;;;5.43;4.70;;;;;;;;;;5106680;27;20047;-69
2021/08/17 14:12:58;;;;;;;4.28;2.10;;;;;;;;;;5117731;27;20047;-69
2021/08/17 14:15:25;;;;;;;3.92;2.08;;;;;;;;;;5113263;27;20042;-69
2021/08/17 14:17:51;;;;;;;2.67;1.58;;;;;;;;;;5110856;27;20119;-69
2021/08/17 14:20:17;;;;;;;3.05;1.58;;;;;;;;;;5108027;27;20046;-68
2021/08/17 14:22:43;;;;;;;2.85;1.40;;;;;;;;;;5081759;28;20471;-69
2021/08/17 14:25:10;;;;;;;2.00;1.23;;;;;;;;;;5110303;27;20483;-69
2021/08/17 14:27:36;;;;;;;3.65;1.60;;;;;;;;;;5111897;27;20042;-69
2021/08/17 14:30:03;;;;;;;3.15;1.58;;;;;;;;;;5112962;27;20036;-70
2021/08/17 14:32:29;;;;;;;1.90;1.00;;;;;;;;;;5110997;27;20546;-70